Time;durP1;ratioP1;P1;durP2;ratioP2;P2;SDS_P1;SDS_P2;PMS_P1;PMS_P2;Temp;Humidity;BMP_temperature;BMP_pressure;BME280_temperature;BME280_humidity;BME280_pressure;Samples;Min_cycle;Max_cycle;Signal;HPM_P1;HPM_P2
2022/10/26 00:01:15;;;;;;;12.30;4.27;;;16.80;99.90;;;;;;5067596;28;20183;-78
2022/10/26 00:03:44;;;;;;;11.47;4.23;;;16.80;99.90;;;;;;5049178;28;20728;-78
2022/10/26 00:06:19;;;;;;;16.00;4.13;;;16.80;99.90;;;;;;5050494;28;20524;-78
2022/10/26 00:08:46;;;;;;;9.37;4.10;;;16.80;99.90;;;;;;5042051;28;20244;-78
2022/10/26 00:11:14;;;;;;;13.27;4.77;;;16.80;99.90;;;;;;5049622;28;20222;-78
2022/10/26 00:13:41;;;;;;;8.37;4.03;;;16.80;99.90;;;;;;5051076;28;20567;-78
2022/10/26 00:16:15;;;;;;;12.13;4.03;;;16.80;99.90;;;;;;5051785;28;20225;-78
2022/10/26 00:18:42;;;;;;;18.37;4.40;;;16.80;99.90;;;;;;5044907;28;20260;-78
2022/10/26 00:21:12;;;;;;;13.27;4.40;;;16.80;99.90;;;;;;5054269;28;20223;-78
2022/10/26 00:23:39;;;;;;;11.83;4.30;;;16.70;99.90;;;;;;5043130;28;20225;-78
2022/10/26 00:26:07;;;;;;;10.07;3.70;;;16.70;99.90;;;;;;5047324;28;20186;-77
2022/10/26 00:28:34;;;;;;;17.67;4.83;;;16.70;99.90;;;;;;5066323;28;20667;-78
2022/10/26 00:31:07;;;;;;;8.40;3.60;;;16.70;99.90;;;;;;5062254;28;20187;-78
2022/10/26 00:33:35;;;;;;;14.20;3.97;;;16.70;99.90;;;;;;5044049;28;20808;-78
2022/10/26 00:36:02;;;;;;;11.20;4.23;;;16.70;99.90;;;;;;5069786;28;20199;-78
2022/10/26 00:38:29;;;;;;;8.67;3.77;;;16.80;99.90;;;;;;5049838;28;20655;-78
2022/10/26 00:40:55;;;;;;;8.47;3.93;;;16.80;99.90;;;;;;5068260;28;20217;-78
2022/10/26 00:43:33;;;;;;;13.93;4.30;;;16.80;99.90;;;;;;5035850;28;20171;-78
2022/10/26 00:46:01;;;;;;;14.00;4.37;;;16.80;99.90;;;;;;5052304;28;20182;-78
2022/10/26 00:48:57;;;;;;;15.17;3.73;;;16.80;99.90;;;;;;5085063;28;20188;-78
2022/10/26 00:51:39;;;;;;;13.90;4.10;;;16.80;99.90;;;;;;5036824;28;20804;-78
2022/10/26 00:54:14;;;;;;;6.87;2.90;;;17.00;99.90;;;;;;5059574;28;20305;-78
2022/10/26 00:56:41;;;;;;;11.63;3.30;;;17.00;99.90;;;;;;5032612;28;20178;-78
2022/10/26 00:59:11;;;;;;;9.53;3.50;;;17.00;99.90;;;;;;5058569;28;20214;-78
2022/10/26 01:01:42;;;;;;;7.53;2.70;;;17.00;99.90;;;;;;5043894;28;20191;-78
2022/10/26 01:04:11;;;;;;;10.47;3.20;;;17.00;99.90;;;;;;5053239;28;20266;-78
2022/10/26 01:06:40;;;;;;;6.13;3.10;;;17.00;99.90;;;;;;5057945;28;20186;-78
2022/10/26 01:09:06;;;;;;;15.00;3.47;;;16.90;99.90;;;;;;5054897;28;20187;-78
2022/10/26 01:11:32;;;;;;;8.23;2.77;;;16.90;99.90;;;;;;5068088;28;20182;-78
2022/10/26 01:14:03;;;;;;;8.10;2.93;;;16.80;99.90;;;;;;5070204;28;20236;-78
2022/10/26 01:17:20;;;;;;;10.77;2.80;;;16.80;99.90;;;;;;5053054;28;20214;-78
2022/10/26 01:20:47;;;;;;;12.80;2.70;;;16.80;99.90;;;;;;5003867;28;20195;-78
2022/10/26 01:23:57;;;;;;;10.40;2.53;;;16.70;99.90;;;;;;5007691;28;20199;-78
2022/10/26 01:26:52;;;;;;;8.07;2.40;;;16.70;99.90;;;;;;5006475;28;20191;-78
2022/10/26 01:29:54;;;;;;;6.03;2.50;;;16.70;99.90;;;;;;5032975;28;20186;-78
2022/10/26 01:33:00;;;;;;;8.13;2.87;;;16.70;99.90;;;;;;5065681;28;20209;-78
2022/10/26 01:35:49;;;;;;;9.87;2.57;;;16.70;99.90;;;;;;5050514;28;20924;-78
2022/10/26 01:38:56;;;;;;;9.13;3.03;;;16.60;99.90;;;;;;5063113;28;20447;-78
2022/10/26 01:41:31;;;;;;;9.37;3.27;;;16.60;99.90;;;;;;5050244;28;20191;-78
2022/10/26 01:44:09;;;;;;;8.27;3.17;;;16.60;99.90;;;;;;5038624;28;20187;-78
2022/10/26 01:46:42;;;;;;;8.30;2.90;;;16.60;99.90;;;;;;5036692;28;20211;-78
2022/10/26 01:49:13;;;;;;;10.17;3.07;;;16.60;99.90;;;;;;5064966;28;20171;-78
2022/10/26 01:51:43;;;;;;;11.47;3.10;;;16.50;99.90;;;;;;5040440;28;20193;-78
2022/10/26 01:54:10;;;;;;;7.93;2.90;;;16.60;99.90;;;;;;5051499;28;20179;-78
2022/10/26 01:56:41;;;;;;;11.83;3.40;;;16.60;99.90;;;;;;5029052;28;20190;-78
2022/10/26 01:59:29;;;;;;;11.07;3.47;;;16.60;99.90;;;;;;5069113;28;20269;-78
2022/10/26 02:02:19;;;;;;;16.40;3.47;;;16.60;99.90;;;;;;5060851;28;20220;-78
2022/10/26 02:05:09;;;;;;;10.80;3.67;;;16.60;99.90;;;;;;5047308;28;20281;-78
2022/10/26 02:08:19;;;;;;;12.60;3.97;;;16.50;99.90;;;;;;5065485;28;20182;-78
2022/10/26 02:11:04;;;;;;;11.20;3.37;;;16.50;99.90;;;;;;5081903;28;20195;-78
2022/10/26 02:14:17;;;;;;;6.90;3.00;;;16.50;99.90;;;;;;5033421;28;20743;-78
2022/10/26 02:17:03;;;;;;;18.57;4.00;;;16.50;99.90;;;;;;5049070;28;20191;-78
2022/10/26 02:19:37;;;;;;;11.90;3.57;;;16.40;99.90;;;;;;5021322;28;20189;-78
2022/10/26 02:22:20;;;;;;;12.53;3.70;;;16.40;99.90;;;;;;5049716;28;20194;-78
2022/10/26 02:24:50;;;;;;;11.90;3.80;;;16.40;99.90;;;;;;5073170;28;20194;-78
2022/10/26 02:27:26;;;;;;;12.33;3.47;;;16.50;99.90;;;;;;5042916;28;20215;-78
2022/10/26 02:29:55;;;;;;;9.50;3.83;;;16.40;99.90;;;;;;5051840;28;20316;-78
2022/10/26 02:32:32;;;;;;;10.50;3.50;;;16.40;99.90;;;;;;5034753;28;21886;-78
2022/10/26 02:35:02;;;;;;;11.50;3.80;;;16.40;99.90;;;;;;5084182;28;20216;-78
2022/10/26 02:37:32;;;;;;;15.57;3.70;;;16.30;99.90;;;;;;5078969;28;20191;-78
2022/10/26 02:40:05;;;;;;;11.07;3.20;;;16.30;99.90;;;;;;5056320;28;20281;-78
2022/10/26 02:42:32;;;;;;;16.70;4.20;;;16.20;99.90;;;;;;5049266;28;20175;-78
2022/10/26 02:45:09;;;;;;;10.87;3.70;;;16.30;99.90;;;;;;5067976;28;20210;-78
2022/10/26 02:47:35;;;;;;;13.23;3.93;;;16.30;99.90;;;;;;5050760;28;20679;-78
2022/10/26 02:50:02;;;;;;;17.03;4.10;;;16.30;99.90;;;;;;5067706;28;20186;-78
2022/10/26 02:53:13;;;;;;;15.57;4.30;;;16.30;99.90;;;;;;5060104;28;21652;-78
2022/10/26 02:55:49;;;;;;;14.93;3.77;;;16.30;99.90;;;;;;5067890;28;20819;-78
2022/10/26 02:58:25;;;;;;;13.60;3.17;;;16.20;99.90;;;;;;5038165;28;20193;-78
2022/10/26 03:00:53;;;;;;;10.43;3.87;;;16.20;99.90;;;;;;5066849;28;20659;-78
2022/10/26 03:03:20;;;;;;;5.73;3.50;;;16.20;99.90;;;;;;5034031;28;20262;-78
2022/10/26 03:05:47;;;;;;;8.17;4.07;;;16.10;99.90;;;;;;5073695;28;20199;-78
2022/10/26 03:08:13;;;;;;;9.77;3.90;;;16.10;99.90;;;;;;5049721;28;20190;-78
2022/10/26 03:10:45;;;;;;;8.63;3.67;;;16.10;99.90;;;;;;5063261;28;20195;-78
2022/10/26 03:13:13;;;;;;;8.77;3.80;;;16.00;99.90;;;;;;5069066;28;20187;-78
2022/10/26 03:15:40;;;;;;;8.90;4.13;;;16.10;99.90;;;;;;5049199;28;20253;-78
2022/10/26 03:18:07;;;;;;;10.83;4.03;;;16.10;99.90;;;;;;5048723;28;20220;-78
2022/10/26 03:20:34;;;;;;;13.17;4.13;;;16.00;99.90;;;;;;5057094;28;20652;-78
2022/10/26 03:23:00;;;;;;;15.93;4.40;;;16.00;99.90;;;;;;5067186;28;20252;-79
2022/10/26 03:25:27;;;;;;;11.80;4.33;;;16.00;99.90;;;;;;5072992;28;20651;-78
2022/10/26 03:28:02;;;;;;;10.07;3.70;;;16.00;99.90;;;;;;5067490;28;20222;-78
2022/10/26 03:30:30;;;;;;;8.83;3.63;;;15.90;99.90;;;;;;5044944;28;20175;-78
2022/10/26 03:32:57;;;;;;;10.07;4.37;;;15.90;99.90;;;;;;5066966;28;20201;-78
2022/10/26 03:35:23;;;;;;;10.13;4.10;;;15.90;99.90;;;;;;5047262;28;20224;-78
2022/10/26 03:37:50;;;;;;;12.87;4.13;;;15.90;99.90;;;;;;5075616;28;20218;-78
2022/10/26 03:40:17;;;;;;;9.20;4.93;;;15.90;99.90;;;;;;5045758;28;20183;-78
2022/10/26 03:42:47;;;;;;;9.30;4.70;;;16.00;99.90;;;;;;5061630;28;20561;-78
2022/10/26 03:45:13;;;;;;;10.07;4.10;;;16.00;99.90;;;;;;5066984;28;20652;-78
2022/10/26 03:47:47;;;;;;;7.90;4.70;;;16.00;99.90;;;;;;5035892;28;20183;-78
2022/10/26 03:50:18;;;;;;;12.37;5.50;;;16.00;99.90;;;;;;5060963;28;20193;-78
2022/10/26 03:52:47;;;;;;;11.20;4.70;;;16.00;99.90;;;;;;5041732;28;20636;-78
2022/10/26 03:55:14;;;;;;;8.50;4.83;;;16.00;99.90;;;;;;5056906;28;20233;-78
2022/10/26 03:57:46;;;;;;;8.73;4.93;;;16.00;99.90;;;;;;5052638;28;20261;-78
2022/10/26 04:00:16;;;;;;;13.40;5.37;;;15.90;99.90;;;;;;5028866;28;20187;-78
2022/10/26 04:02:50;;;;;;;11.63;4.90;;;16.00;99.90;;;;;;5051231;28;20179;-78
2022/10/26 04:05:16;;;;;;;11.70;4.47;;;16.00;99.90;;;;;;5059254;28;20703;-78
2022/10/26 04:07:43;;;;;;;13.63;4.80;;;16.00;99.90;;;;;;5057433;28;20259;-78
2022/10/26 04:10:10;;;;;;;10.77;4.53;;;16.00;99.90;;;;;;5045770;28;20194;-78
2022/10/26 04:12:37;;;;;;;11.73;5.13;;;16.00;99.90;;;;;;5075370;28;20270;-78
2022/10/26 04:15:05;;;;;;;10.37;4.70;;;15.90;99.90;;;;;;5047570;28;20739;-78
2022/10/26 04:17:33;;;;;;;11.87;4.37;;;15.90;99.90;;;;;;5078068;28;20174;-78
2022/10/26 04:19:59;;;;;;;9.93;4.63;;;15.90;99.90;;;;;;5067875;28;20277;-78
2022/10/26 04:22:26;;;;;;;16.17;5.37;;;15.90;99.90;;;;;;5076641;28;20238;-78
2022/10/26 04:24:54;;;;;;;12.07;4.77;;;15.90;99.90;;;;;;5055679;28;20660;-78
2022/10/26 04:27:20;;;;;;;16.27;4.67;;;15.90;99.90;;;;;;5087002;28;20212;-78
2022/10/26 04:29:47;;;;;;;11.00;4.40;;;16.00;99.90;;;;;;5074513;28;20274;-78
2022/10/26 04:32:14;;;;;;;8.10;4.07;;;16.00;99.90;;;;;;5048268;28;20189;-78
2022/10/26 04:34:40;;;;;;;12.57;4.57;;;16.00;99.90;;;;;;5077686;28;20244;-78
2022/10/26 04:37:07;;;;;;;12.37;4.50;;;16.10;99.90;;;;;;5077065;28;20209;-78
2022/10/26 04:39:33;;;;;;;12.47;4.23;;;16.10;99.90;;;;;;5080068;28;20199;-78
2022/10/26 04:41:59;;;;;;;7.50;4.20;;;16.10;99.90;;;;;;5072346;28;20248;-78
2022/10/26 04:44:26;;;;;;;13.20;4.50;;;16.20;99.90;;;;;;5057225;28;20593;-78
2022/10/26 04:46:52;;;;;;;18.57;4.33;;;16.20;99.90;;;;;;5081919;28;20574;-78
2022/10/26 04:49:18;;;;;;;6.33;3.77;;;16.30;99.90;;;;;;5075738;28;20215;-78
2022/10/26 04:51:44;;;;;;;11.30;3.63;;;16.30;99.90;;;;;;5058561;28;20187;-78
2022/10/26 04:54:11;;;;;;;15.50;4.00;;;16.30;99.90;;;;;;5084889;28;20331;-78
2022/10/26 04:56:37;;;;;;;7.53;3.80;;;16.30;99.90;;;;;;5061329;28;20202;-78
2022/10/26 04:59:03;;;;;;;8.17;3.90;;;16.40;99.90;;;;;;5056506;28;20281;-78
2022/10/26 05:01:31;;;;;;;11.90;3.57;;;16.40;99.90;;;;;;5066442;28;20191;-78
2022/10/26 05:03:58;;;;;;;8.50;3.33;;;16.40;99.90;;;;;;5048805;28;20183;-78
2022/10/26 05:06:24;;;;;;;9.90;3.40;;;16.40;99.90;;;;;;5069002;28;20781;-78
2022/10/26 05:08:50;;;;;;;13.10;3.33;;;16.40;99.90;;;;;;5073811;28;20284;-78
2022/10/26 05:11:18;;;;;;;6.20;3.40;;;16.40;99.90;;;;;;5051394;28;20194;-78
2022/10/26 05:13:47;;;;;;;7.13;3.07;;;16.40;99.90;;;;;;5051233;28;20178;-78
2022/10/26 05:16:17;;;;;;;10.90;3.23;;;16.50;99.90;;;;;;5076854;28;20627;-78
2022/10/26 05:18:48;;;;;;;12.17;3.50;;;16.50;99.90;;;;;;5045692;28;20183;-78
2022/10/26 05:21:18;;;;;;;12.70;3.30;;;16.60;99.90;;;;;;5055465;28;20258;-78
2022/10/26 05:23:52;;;;;;;7.00;3.33;;;16.60;99.90;;;;;;5057212;28;20500;-78
2022/10/26 05:26:20;;;;;;;6.23;3.30;;;16.70;99.90;;;;;;5072369;28;20256;-79
2022/10/26 05:28:47;;;;;;;6.23;3.40;;;16.70;99.90;;;;;;5051452;28;20750;-78
2022/10/26 05:31:13;;;;;;;10.80;3.53;;;16.70;99.90;;;;;;5060221;28;20215;-78
2022/10/26 05:33:41;;;;;;;9.23;3.30;;;16.80;99.90;;;;;;5063170;28;20566;-78
2022/10/26 05:36:07;;;;;;;8.40;2.90;;;16.80;99.90;;;;;;5064729;28;20207;-78
2022/10/26 05:38:34;;;;;;;9.00;2.90;;;16.90;99.90;;;;;;5053874;28;20736;-78
2022/10/26 05:41:00;;;;;;;8.67;3.40;;;17.00;99.90;;;;;;5058690;28;20187;-78
2022/10/26 05:43:27;;;;;;;9.50;3.23;;;17.20;99.90;;;;;;5066090;28;20277;-78
2022/10/26 05:45:54;;;;;;;6.10;2.57;;;17.60;99.90;;;;;;5045890;28;20708;-78
2022/10/26 05:48:20;;;;;;;9.73;3.03;;;17.90;99.90;;;;;;5075406;28;20201;-78
2022/10/26 05:50:47;;;;;;;7.37;2.73;;;18.00;99.90;;;;;;5034159;28;20214;-79
2022/10/26 05:53:13;;;;;;;7.50;2.50;;;18.00;99.90;;;;;;5067479;28;20189;-78
2022/10/26 05:55:40;;;;;;;6.60;2.70;;;18.00;99.90;;;;;;5053379;28;20210;-78
2022/10/26 05:58:13;;;;;;;9.37;3.00;;;18.10;99.90;;;;;;5050700;28;20282;-79
2022/10/26 06:01:38;;;;;;;7.83;3.00;;;18.10;99.90;;;;;;5044673;28;20190;-79
2022/10/26 06:04:22;;;;;;;10.03;2.90;;;18.10;99.90;;;;;;5042225;28;20195;-79
2022/10/26 06:06:54;;;;;;;8.80;2.77;;;18.10;99.90;;;;;;5065043;28;20624;-78
2022/10/26 06:09:22;;;;;;;9.13;3.13;;;18.10;99.90;;;;;;5072985;28;20182;-78
2022/10/26 06:11:49;;;;;;;11.87;2.93;;;18.10;99.90;;;;;;5053636;28;20175;-78
2022/10/26 06:14:15;;;;;;;6.60;2.67;;;18.10;99.90;;;;;;5058041;28;20275;-79
2022/10/26 06:17:02;;;;;;;8.73;3.10;;;18.10;99.90;;;;;;5078902;28;20718;-78
2022/10/26 06:20:03;;;;;;;9.77;3.03;;;18.20;99.90;;;;;;5058503;28;20179;-78
2022/10/26 06:23:12;;;;;;;15.03;3.20;;;18.20;99.90;;;;;;5043266;28;20320;-78
2022/10/26 06:26:33;;;;;;;13.20;2.80;;;18.20;99.90;;;;;;5037146;28;20271;-79
2022/10/26 06:29:48;;;;;;;10.90;3.13;;;18.40;99.90;;;;;;5064192;28;20827;-78
2022/10/26 06:32:16;;;;;;;9.00;3.10;;;18.50;99.90;;;;;;5040323;28;20240;-79
2022/10/26 06:34:49;;;;;;;11.30;3.23;;;18.50;99.90;;;;;;5049719;28;20571;-78
2022/10/26 06:37:16;;;;;;;8.67;3.20;;;18.70;99.90;;;;;;5057942;28;20520;-78
2022/10/26 06:39:48;;;;;;;8.63;2.80;;;18.80;99.90;;;;;;5049319;28;20187;-78
2022/10/26 06:42:15;;;;;;;11.23;2.87;;;18.80;99.90;;;;;;5049967;28;20223;-78
2022/10/26 06:44:42;;;;;;;14.60;3.50;;;18.90;99.90;;;;;;5047844;28;20317;-79
2022/10/26 06:47:27;;;;;;;6.80;2.87;;;18.90;99.90;;;;;;5069505;28;21106;-78
2022/10/26 06:50:52;;;;;;;11.43;3.67;;;19.00;99.90;;;;;;5033385;28;20193;-78
2022/10/26 06:53:46;;;;;;;15.03;3.63;;;19.20;99.90;;;;;;5053315;28;20271;-78
2022/10/26 06:56:13;;;;;;;9.43;3.30;;;19.30;99.90;;;;;;5033116;28;20235;-78
2022/10/26 06:58:42;;;;;;;12.63;3.00;;;19.30;99.90;;;;;;5057178;28;20267;-78
2022/10/26 07:01:11;;;;;;;9.87;3.40;;;19.30;99.90;;;;;;5065147;28;20191;-78
2022/10/26 07:03:38;;;;;;;9.70;3.07;;;19.30;99.90;;;;;;5043914;28;20187;-78
2022/10/26 07:06:05;;;;;;;6.73;3.00;;;19.40;99.90;;;;;;5043872;28;20202;-78
2022/10/26 07:08:32;;;;;;;9.10;3.27;;;19.60;99.90;;;;;;5038568;28;20706;-77
2022/10/26 07:10:58;;;;;;;9.30;3.50;;;19.50;99.90;;;;;;5053824;28;20277;-79
2022/10/26 07:13:24;;;;;;;8.87;3.00;;;19.50;99.90;;;;;;5029564;28;20187;-78
2022/10/26 07:15:50;;;;;;;10.47;3.07;;;19.40;99.90;;;;;;5059321;28;20209;-78
2022/10/26 07:18:17;;;;;;;14.30;3.70;;;19.40;99.90;;;;;;5066300;28;20268;-79
2022/10/26 07:20:43;;;;;;;9.37;3.57;;;19.50;99.90;;;;;;5044117;28;20183;-79
2022/10/26 07:23:11;;;;;;;12.07;3.63;;;19.50;99.90;;;;;;5058340;28;20275;-78
2022/10/26 07:25:39;;;;;;;11.13;3.60;;;19.50;99.90;;;;;;5057462;28;20524;-78
2022/10/26 07:28:10;;;;;;;9.23;3.50;;;19.60;99.90;;;;;;5045646;28;20191;-78
2022/10/26 07:30:39;;;;;;;12.97;3.73;;;19.60;99.90;;;;;;5040804;28;20210;-78
2022/10/26 07:33:12;;;;;;;9.13;3.17;;;19.60;99.90;;;;;;5041604;28;20355;-78
2022/10/26 07:35:40;;;;;;;10.67;3.50;;;19.60;99.90;;;;;;5064986;28;20215;-78
2022/10/26 07:38:07;;;;;;;15.10;4.50;;;19.70;99.90;;;;;;5058383;28;20197;-78
2022/10/26 07:40:36;;;;;;;8.00;3.10;;;19.70;99.90;;;;;;5042088;28;21873;-78
2022/10/26 07:43:02;;;;;;;13.27;4.30;;;19.70;99.90;;;;;;5030232;28;20225;-78
2022/10/26 07:45:29;;;;;;;10.77;3.70;;;19.70;99.90;;;;;;5041269;28;20198;-78
2022/10/26 07:47:56;;;;;;;13.70;3.87;;;19.70;99.90;;;;;;5050680;28;20338;-78
2022/10/26 07:50:24;;;;;;;18.03;4.00;;;19.90;99.90;;;;;;5068512;28;20198;-78
2022/10/26 07:52:50;;;;;;;17.50;4.47;;;20.10;99.90;;;;;;5060344;28;20564;-78
2022/10/26 07:55:16;;;;;;;16.00;4.07;;;20.10;99.90;;;;;;5063308;28;20254;-78
2022/10/26 07:57:42;;;;;;;13.90;4.03;;;20.20;99.90;;;;;;5025450;28;20191;-78
2022/10/26 08:00:10;;;;;;;12.30;4.33;;;20.30;99.90;;;;;;5046990;28;20199;-78
2022/10/26 08:02:36;;;;;;;16.63;4.00;;;20.30;99.90;;;;;;5040107;28;20223;-79
2022/10/26 08:05:04;;;;;;;18.20;3.87;;;20.30;99.90;;;;;;5065661;28;20183;-78
2022/10/26 08:07:30;;;;;;;6.97;3.50;;;20.30;99.90;;;;;;5063974;28;20659;-78
2022/10/26 08:09:57;;;;;;;11.03;4.23;;;20.50;99.90;;;;;;5038145;28;20195;-78
2022/10/26 08:12:24;;;;;;;15.37;3.93;;;20.60;99.90;;;;;;5033331;28;20343;-78
2022/10/26 08:14:50;;;;;;;16.60;4.63;;;20.70;99.90;;;;;;5068771;28;20214;-79
2022/10/26 08:17:17;;;;;;;16.20;4.20;;;20.70;99.90;;;;;;5048374;28;20195;-78
2022/10/26 08:19:43;;;;;;;8.57;3.93;;;20.80;99.90;;;;;;5037412;28;20313;-78
2022/10/26 08:22:09;;;;;;;11.23;4.13;;;20.90;99.90;;;;;;5051569;28;20225;-78
2022/10/26 08:24:38;;;;;;;10.07;3.90;;;20.90;99.90;;;;;;5048339;28;20191;-78
2022/10/26 08:27:05;;;;;;;11.90;4.13;;;20.90;99.90;;;;;;5044378;28;20232;-78
2022/10/26 08:29:31;;;;;;;15.00;4.10;;;21.10;99.90;;;;;;5039808;28;20194;-78
2022/10/26 08:31:58;;;;;;;17.40;4.07;;;21.20;99.90;;;;;;5045658;28;20187;-78
2022/10/26 08:34:24;;;;;;;10.60;3.73;;;21.20;99.90;;;;;;5060327;28;20281;-78
2022/10/26 08:36:50;;;;;;;12.02;3.92;;;21.40;99.90;;;;;;5042706;28;20696;-78
2022/10/26 08:39:17;;;;;;;18.33;4.35;;;21.50;99.90;;;;;;5054336;28;20191;-78
2022/10/26 08:42:10;;;;;;;18.30;4.03;;;21.50;99.90;;;;;;5062102;28;20880;-78
2022/10/26 08:44:47;;;;;;;10.20;3.77;;;21.70;99.90;;;;;;5052665;28;20190;-78
2022/10/26 08:47:21;;;;;;;18.63;3.83;;;21.70;99.90;;;;;;5045234;28;20189;-78
2022/10/26 08:50:29;;;;;;;16.03;3.60;;;21.60;99.90;;;;;;5043595;28;20201;-78
2022/10/26 08:53:28;;;;;;;14.57;4.15;;;21.70;99.90;;;;;;5043476;28;20195;-78
2022/10/26 08:56:06;;;;;;;18.25;4.38;;;21.90;99.90;;;;;;5044329;28;20224;-78
2022/10/26 08:58:44;;;;;;;10.00;3.50;;;21.90;99.90;;;;;;5030077;28;20187;-78
2022/10/26 09:01:11;;;;;;;19.77;3.83;;;22.10;99.90;;;;;;5035393;28;20183;-77
2022/10/26 09:03:37;;;;;;;13.10;3.75;;;22.20;99.90;;;;;;5044376;28;20224;-78
2022/10/26 09:06:33;;;;;;;13.15;3.70;;;22.20;99.90;;;;;;5049037;28;20838;-78
2022/10/26 09:09:05;;;;;;;9.55;3.47;;;22.20;99.90;;;;;;5041015;28;20188;-78
2022/10/26 09:11:53;;;;;;;17.50;4.28;;;22.20;99.90;;;;;;5067768;28;20192;-77
2022/10/26 09:14:53;;;;;;;15.27;3.75;;;22.40;99.90;;;;;;5065118;28;20186;-78
2022/10/26 09:17:43;;;;;;;16.17;4.50;;;22.40;99.90;;;;;;5041780;28;20604;-78
2022/10/26 09:20:58;;;;;;;10.32;3.65;;;22.70;99.90;;;;;;5048675;28;20697;-77
2022/10/26 09:24:04;;;;;;;13.00;3.80;;;22.70;99.90;;;;;;5068692;28;20191;-78
2022/10/26 09:26:59;;;;;;;9.77;3.45;;;22.60;99.90;;;;;;5044981;28;21266;-78
2022/10/26 09:29:40;;;;;;;17.75;3.83;;;22.60;99.90;;;;;;5057922;28;20588;-78
2022/10/26 09:32:20;;;;;;;13.25;3.90;;;22.60;99.90;;;;;;5044694;28;20198;-78
2022/10/26 09:35:00;;;;;;;11.77;3.60;;;22.60;99.90;;;;;;5058548;28;20215;-78
2022/10/26 09:37:39;;;;;;;17.60;4.10;;;22.80;99.90;;;;;;5046587;28;20278;-77
2022/10/26 09:40:35;;;;;;;13.45;3.35;;;22.90;99.90;;;;;;5064541;28;20187;-78
2022/10/26 09:43:29;;;;;;;11.07;3.60;;;22.90;99.90;;;;;;5054037;28;20248;-78
2022/10/26 09:45:55;;;;;;;11.88;3.75;;;23.10;99.90;;;;;;5049942;28;20187;-77
2022/10/26 09:48:52;;;;;;;16.90;4.00;;;23.10;99.90;;;;;;5041191;28;20193;-78
2022/10/26 09:51:19;;;;;;;15.85;4.00;;;23.20;99.90;;;;;;5059074;28;20247;-78
2022/10/26 09:53:47;;;;;;;11.50;3.60;;;23.20;99.90;;;;;;5063961;28;20273;-78
2022/10/26 09:56:15;;;;;;;15.63;3.75;;;23.40;99.90;;;;;;5050261;28;20206;-77
2022/10/26 09:58:50;;;;;;;11.77;3.90;;;23.50;99.90;;;;;;5044723;28;20198;-78
2022/10/26 10:01:32;;;;;;;15.82;3.70;;;23.60;99.90;;;;;;5027553;28;20269;-78
2022/10/26 10:04:16;;;;;;;15.32;3.78;;;23.60;99.90;;;;;;5046212;28;20185;-78
2022/10/26 10:06:45;;;;;;;15.10;4.72;;;23.80;99.90;;;;;;5045698;28;20195;-78
2022/10/26 10:09:18;;;;;;;16.38;3.88;;;24.00;99.90;;;;;;5037931;28;20193;-78
2022/10/26 10:12:02;;;;;;;13.63;3.80;;;24.10;99.90;;;;;;5029931;28;20206;-78
2022/10/26 10:14:32;;;;;;;17.67;3.60;;;24.20;99.90;;;;;;5066349;28;20701;-78
2022/10/26 10:17:09;;;;;;;13.07;3.67;;;24.40;99.90;;;;;;5039771;28;20663;-78
2022/10/26 10:19:38;;;;;;;12.15;3.67;;;24.60;99.90;;;;;;5023477;28;20667;-78
2022/10/26 10:22:22;;;;;;;12.93;4.15;;;25.70;99.90;;;;;;5026749;28;20190;-78
2022/10/26 10:25:03;;;;;;;9.88;3.40;;;27.30;99.90;;;;;;5026394;28;20186;-78
2022/10/26 10:27:32;;;;;;;13.43;3.83;;;29.10;99.90;;;;;;5046017;28;20347;-78
2022/10/26 10:30:21;;;;;;;12.73;3.72;;;29.90;99.90;;;;;;5062515;28;20236;-78
2022/10/26 10:33:09;;;;;;;13.88;4.32;;;29.00;99.90;;;;;;5043466;28;20654;-78
2022/10/26 10:35:39;;;;;;;11.25;3.90;;;27.70;99.90;;;;;;5046311;28;20217;-78
2022/10/26 10:38:05;;;;;;;12.35;3.40;;;26.70;99.90;;;;;;5074520;28;20186;-78
2022/10/26 10:40:32;;;;;;;10.63;3.78;;;26.40;99.90;;;;;;5044064;28;20175;-78
2022/10/26 10:43:13;;;;;;;14.80;4.63;;;26.10;99.90;;;;;;5078004;28;20338;-78
2022/10/26 10:45:47;;;;;;;12.10;3.60;;;26.20;99.90;;;;;;5045608;28;20194;-78
2022/10/26 10:48:23;;;;;;;15.02;4.38;;;26.10;99.90;;;;;;5064374;28;21248;-78
2022/10/26 10:51:03;;;;;;;17.45;4.05;;;26.10;99.90;;;;;;5064051;28;20194;-78
2022/10/26 10:53:44;;;;;;;17.10;3.95;;;26.30;99.90;;;;;;5059142;28;20229;-77
2022/10/26 10:56:30;;;;;;;18.73;3.80;;;27.40;99.90;;;;;;5065370;28;20529;-78
2022/10/26 10:59:33;;;;;;;9.45;3.47;;;26.40;99.90;;;;;;5055255;28;20178;-78
2022/10/26 11:02:48;;;;;;;14.88;4.07;;;25.60;99.90;;;;;;5043846;28;20183;-78
2022/10/26 11:05:49;;;;;;;10.20;3.40;;;25.10;99.90;;;;;;5049916;28;20183;-78
2022/10/26 11:08:19;;;;;;;13.77;3.83;;;25.10;99.90;;;;;;5046017;28;20277;-78
2022/10/26 11:11:17;;;;;;;13.82;4.45;;;25.00;99.90;;;;;;5046722;28;20611;-78
2022/10/26 11:14:09;;;;;;;17.35;4.38;;;25.00;99.90;;;;;;5036109;28;20332;-79
2022/10/26 11:17:09;;;;;;;11.68;3.50;;;25.00;99.90;;;;;;5050041;28;20438;-79
2022/10/26 11:19:59;;;;;;;12.35;3.55;;;25.00;99.90;;;;;;5041948;28;20218;-79
2022/10/26 11:22:42;;;;;;;18.92;3.83;;;25.10;99.90;;;;;;5035398;28;20195;-79
2022/10/26 11:25:24;;;;;;;18.75;4.30;;;25.10;99.90;;;;;;5051323;28;20743;-79
2022/10/26 11:27:58;;;;;;;12.07;3.80;;;25.00;99.90;;;;;;5066831;28;20202;-78
2022/10/26 11:30:26;;;;;;;9.43;3.83;;;24.90;99.90;;;;;;5057514;28;20655;-78
2022/10/26 11:33:28;;;;;;;12.35;3.88;;;25.00;99.90;;;;;;5042662;28;20183;-78
2022/10/26 11:36:07;;;;;;;15.02;3.85;;;24.90;99.90;;;;;;5038447;28;20618;-79
2022/10/26 11:38:47;;;;;;;14.43;3.50;;;24.90;99.90;;;;;;5046901;28;20285;-78
2022/10/26 11:41:42;;;;;;;15.20;3.55;;;24.90;99.90;;;;;;5038122;28;20301;-78
2022/10/26 11:44:17;;;;;;;23.08;3.90;;;25.00;99.90;;;;;;5044171;28;20186;-78
2022/10/26 11:47:02;;;;;;;18.98;4.00;;;25.00;99.90;;;;;;5023797;28;20198;-78
2022/10/26 11:49:55;;;;;;;14.57;4.20;;;24.90;99.90;;;;;;5025134;28;20186;-78
2022/10/26 11:52:47;;;;;;;16.27;3.85;;;24.80;99.90;;;;;;5041691;28;20704;-78
2022/10/26 11:55:14;;;;;;;12.30;3.72;;;24.80;99.90;;;;;;5046983;28;20211;-78
2022/10/26 11:57:41;;;;;;;19.70;4.15;;;24.80;99.90;;;;;;5067112;28;20182;-78
2022/10/26 12:00:11;;;;;;;17.52;4.05;;;24.80;99.90;;;;;;5031250;28;20252;-79
2022/10/26 12:02:41;;;;;;;16.95;4.20;;;24.70;99.90;;;;;;5060089;28;20221;-78
2022/10/26 12:05:35;;;;;;;11.65;3.85;;;24.80;99.90;;;;;;5021987;28;20186;-78
2022/10/26 12:08:17;;;;;;;14.70;4.15;;;24.80;99.90;;;;;;5042394;28;20194;-78
2022/10/26 12:10:54;;;;;;;17.15;5.05;;;24.80;99.90;;;;;;5044063;28;20201;-78
2022/10/26 12:13:47;;;;;;;13.73;5.20;;;24.70;99.90;;;;;;5038630;28;20191;-78
2022/10/26 12:16:47;;;;;;;15.75;6.63;;;24.60;99.90;;;;;;5059878;28;20214;-77
2022/10/26 12:19:38;;;;;;;19.17;5.93;;;24.50;99.90;;;;;;5037785;28;20537;-78
2022/10/26 12:22:13;;;;;;;14.10;5.18;;;24.50;99.90;;;;;;5037029;28;20222;-78
2022/10/26 12:25:05;;;;;;;12.13;5.05;;;24.40;99.90;;;;;;5052289;28;20186;-79
2022/10/26 12:27:37;;;;;;;18.15;5.40;;;24.30;99.90;;;;;;5047507;28;20183;-78
2022/10/26 12:30:32;;;;;;;8.63;4.75;;;24.40;99.90;;;;;;5045582;28;20193;-79
2022/10/26 12:33:29;;;;;;;11.40;5.00;;;24.40;99.90;;;;;;5062303;28;20244;-78
2022/10/26 12:35:55;;;;;;;16.50;4.78;;;24.20;99.90;;;;;;5061205;28;20199;-78
2022/10/26 12:38:24;;;;;;;12.77;4.22;;;24.20;99.90;;;;;;5061141;28;20194;-78
2022/10/26 12:41:09;;;;;;;18.42;5.00;;;24.20;99.90;;;;;;5066371;28;20214;-78
2022/10/26 12:43:42;;;;;;;14.52;4.78;;;24.10;99.90;;;;;;5042819;28;20388;-78
2022/10/26 12:46:14;;;;;;;26.00;5.85;;;24.20;99.90;;;;;;5068904;28;20197;-78
2022/10/26 12:48:49;;;;;;;23.63;6.18;;;24.30;99.90;;;;;;5052622;28;20191;-78
2022/10/26 12:51:21;;;;;;;21.90;6.03;;;24.20;99.90;;;;;;5064218;28;20189;-78
2022/10/26 12:54:17;;;;;;;17.65;5.20;;;24.00;99.90;;;;;;5040021;28;20327;-78
2022/10/26 12:57:17;;;;;;;18.67;5.63;;;23.90;99.90;;;;;;5049316;28;20534;-78
2022/10/26 12:59:59;;;;;;;18.20;5.60;;;23.70;99.90;;;;;;5066718;28;20215;-78
2022/10/26 13:03:05;;;;;;;18.40;5.20;;;23.60;99.90;;;;;;5042132;28;21857;-78
2022/10/26 13:06:04;;;;;;;19.45;5.00;;;23.50;99.90;;;;;;5052460;28;20178;-79
2022/10/26 13:08:52;;;;;;;16.40;5.20;;;23.40;99.90;;;;;;5006231;28;20230;-77
2022/10/26 13:11:34;;;;;;;16.50;5.05;;;23.30;99.90;;;;;;5046463;28;20190;-78
2022/10/26 13:14:08;;;;;;;16.55;5.18;;;23.20;99.90;;;;;;5053490;28;20228;-77
2022/10/26 13:16:34;;;;;;;13.07;5.10;;;23.10;99.90;;;;;;5047876;28;20219;-77
2022/10/26 13:19:01;;;;;;;11.27;4.78;;;23.00;99.90;;;;;;5054443;28;20187;-78
2022/10/26 13:21:28;;;;;;;13.45;4.93;;;22.90;99.90;;;;;;5062550;28;20195;-78
2022/10/26 13:23:57;;;;;;;12.70;5.60;;;22.90;99.90;;;;;;5056279;28;20187;-78
2022/10/26 13:26:27;;;;;;;18.27;5.57;;;22.90;99.90;;;;;;5063134;28;20608;-78